sensor_id;sensor_type;location;lat;lon;timestamp;pressure;altitude;pressure_sealevel;temperature;humidity
42067;BME280;27734;47.028;28.820;2023-04-29T00:00:41;100605.38;;;6.53;51.76
42067;BME280;27734;47.028;28.820;2023-04-29T00:03:18;100602.61;;;6.50;50.96
42067;BME280;27734;47.028;28.820;2023-04-29T00:05:46;100600.75;;;6.47;51.27
42067;BME280;27734;47.028;28.820;2023-04-29T00:08:15;100601.64;;;6.47;51.61
42067;BME280;27734;47.028;28.820;2023-04-29T00:10:43;100592.85;;;6.45;51.49
42067;BME280;27734;47.028;28.820;2023-04-29T00:13:12;100600.59;;;6.44;51.43
42067;BME280;27734;47.028;28.820;2023-04-29T00:15:41;100594.45;;;6.43;51.63
42067;BME280;27734;47.028;28.820;2023-04-29T00:18:09;100603.91;;;6.41;51.51
42067;BME280;27734;47.028;28.820;2023-04-29T00:20:38;100597.06;;;6.43;51.48
42067;BME280;27734;47.028;28.820;2023-04-29T00:23:07;100599.67;;;6.43;51.69
42067;BME280;27734;47.028;28.820;2023-04-29T00:25:35;100599.58;;;6.42;51.46
42067;BME280;27734;47.028;28.820;2023-04-29T00:28:06;100596.64;;;6.36;51.76
42067;BME280;27734;47.028;28.820;2023-04-29T00:30:34;100600.80;;;6.32;51.34
42067;BME280;27734;47.028;28.820;2023-04-29T00:33:04;100601.64;;;6.31;51.75
42067;BME280;27734;47.028;28.820;2023-04-29T00:35:32;100601.39;;;6.26;51.65
42067;BME280;27734;47.028;28.820;2023-04-29T00:38:01;100606.44;;;6.23;51.77
42067;BME280;27734;47.028;28.820;2023-04-29T00:40:30;100609.67;;;6.19;52.04
42067;BME280;27734;47.028;28.820;2023-04-29T00:42:58;100611.22;;;6.16;51.86
42067;BME280;27734;47.028;28.820;2023-04-29T00:45:27;100615.43;;;6.14;52.05
42067;BME280;27734;47.028;28.820;2023-04-29T00:47:57;100611.86;;;6.11;51.93
42067;BME280;27734;47.028;28.820;2023-04-29T00:50:30;100615.34;;;6.12;52.13
42067;BME280;27734;47.028;28.820;2023-04-29T00:53:00;100616.89;;;6.08;52.13
42067;BME280;27734;47.028;28.820;2023-04-29T00:55:32;100614.03;;;6.04;52.10
42067;BME280;27734;47.028;28.820;2023-04-29T00:58:03;100608.65;;;6.01;52.50
42067;BME280;27734;47.028;28.820;2023-04-29T01:00:33;100611.88;;;5.97;52.50
42067;BME280;27734;47.028;28.820;2023-04-29T01:03:04;100616.80;;;5.92;52.66
42067;BME280;27734;47.028;28.820;2023-04-29T01:05:34;100613.31;;;5.91;52.82
42067;BME280;27734;47.028;28.820;2023-04-29T01:08:15;100609.82;;;5.91;52.90
42067;BME280;27734;47.028;28.820;2023-04-29T01:10:56;100613.39;;;5.93;52.38
42067;BME280;27734;47.028;28.820;2023-04-29T01:13:34;100614.02;;;5.89;53.02
42067;BME280;27734;47.028;28.820;2023-04-29T01:16:20;100601.31;;;5.79;53.20
42067;BME280;27734;47.028;28.820;2023-04-29T01:18:58;100619.98;;;5.86;52.50
42067;BME280;27734;47.028;28.820;2023-04-29T01:21:45;100620.78;;;5.85;52.95
42067;BME280;27734;47.028;28.820;2023-04-29T01:24:17;100620.60;;;5.82;52.67
42067;BME280;27734;47.028;28.820;2023-04-29T01:26:54;100616.11;;;5.80;53.64
42067;BME280;27734;47.028;28.820;2023-04-29T01:30:01;100614.33;;;5.79;53.11
42067;BME280;27734;47.028;28.820;2023-04-29T01:32:52;100611.55;;;5.75;53.51
42067;BME280;27734;47.028;28.820;2023-04-29T01:35:38;100615.53;;;5.69;54.16
42067;BME280;27734;47.028;28.820;2023-04-29T01:38:20;100623.08;;;5.64;53.94
42067;BME280;27734;47.028;28.820;2023-04-29T01:40:58;100613.37;;;5.62;54.40
42067;BME280;27734;47.028;28.820;2023-04-29T01:43:33;100624.49;;;5.59;54.84
42067;BME280;27734;47.028;28.820;2023-04-29T01:46:13;100612.92;;;5.54;54.99
42067;BME280;27734;47.028;28.820;2023-04-29T01:48:46;100617.07;;;5.50;54.69
42067;BME280;27734;47.028;28.820;2023-04-29T01:51:16;100619.58;;;5.49;55.43
42067;BME280;27734;47.028;28.820;2023-04-29T01:53:45;100617.69;;;5.46;54.72
42067;BME280;27734;47.028;28.820;2023-04-29T01:56:15;100627.03;;;5.43;55.68
42067;BME280;27734;47.028;28.820;2023-04-29T01:58:58;100616.45;;;5.39;54.96
42067;BME280;27734;47.028;28.820;2023-04-29T02:01:37;100612.12;;;5.40;55.18
42067;BME280;27734;47.028;28.820;2023-04-29T02:04:06;100619.05;;;5.39;55.88
42067;BME280;27734;47.028;28.820;2023-04-29T02:06:37;100617.86;;;5.34;55.50
42067;BME280;27734;47.028;28.820;2023-04-29T02:09:07;100622.97;;;5.33;54.73
42067;BME280;27734;47.028;28.820;2023-04-29T02:11:37;100620.46;;;5.34;55.25
42067;BME280;27734;47.028;28.820;2023-04-29T02:14:07;100624.87;;;5.35;55.74
42067;BME280;27734;47.028;28.820;2023-04-29T02:16:36;100625.58;;;5.33;56.52
42067;BME280;27734;47.028;28.820;2023-04-29T02:19:05;100626.22;;;5.29;56.16
42067;BME280;27734;47.028;28.820;2023-04-29T02:21:34;100626.05;;;5.26;56.42
42067;BME280;27734;47.028;28.820;2023-04-29T02:24:03;100630.27;;;5.24;56.37
42067;BME280;27734;47.028;28.820;2023-04-29T02:26:31;100634.64;;;5.25;55.61
42067;BME280;27734;47.028;28.820;2023-04-29T02:29:00;100629.35;;;5.23;56.19
42067;BME280;27734;47.028;28.820;2023-04-29T02:31:30;100630.97;;;5.21;56.53
42067;BME280;27734;47.028;28.820;2023-04-29T02:33:59;100636.09;;;5.19;56.58
42067;BME280;27734;47.028;28.820;2023-04-29T02:36:27;100633.48;;;5.19;56.56
42067;BME280;27734;47.028;28.820;2023-04-29T02:38:56;100635.20;;;5.19;56.37
42067;BME280;27734;47.028;28.820;2023-04-29T02:41:25;100629.91;;;5.17;56.87
42067;BME280;27734;47.028;28.820;2023-04-29T02:43:54;100640.13;;;5.14;56.53
42067;BME280;27734;47.028;28.820;2023-04-29T02:46:22;100651.23;;;5.12;57.69
42067;BME280;27734;47.028;28.820;2023-04-29T02:48:51;100645.84;;;5.09;57.04
42067;BME280;27734;47.028;28.820;2023-04-29T02:51:19;100646.55;;;5.06;57.05
42067;BME280;27734;47.028;28.820;2023-04-29T02:53:48;100648.17;;;5.04;57.37
42067;BME280;27734;47.028;28.820;2023-04-29T02:56:17;100648.17;;;5.04;57.01
42067;BME280;27734;47.028;28.820;2023-04-29T02:58:45;100647.47;;;5.07;57.43
42067;BME280;27734;47.028;28.820;2023-04-29T03:01:14;100659.65;;;5.08;57.06
42067;BME280;27734;47.028;28.820;2023-04-29T03:03:42;100650.96;;;5.07;58.01
42067;BME280;27734;47.028;28.820;2023-04-29T03:06:11;100652.58;;;5.05;56.99
42067;BME280;27734;47.028;28.820;2023-04-29T03:08:40;100656.06;;;5.06;57.49
42067;BME280;27734;47.028;28.820;2023-04-29T03:11:08;100652.58;;;5.05;57.28
42067;BME280;27734;47.028;28.820;2023-04-29T03:13:37;100660.48;;;5.07;57.87
42067;BME280;27734;47.028;28.820;2023-04-29T03:16:07;100662.98;;;5.05;57.95
42067;BME280;27734;47.028;28.820;2023-04-29T03:18:36;100657.69;;;5.03;57.99
42067;BME280;27734;47.028;28.820;2023-04-29T03:21:06;100669.87;;;5.04;58.00
42067;BME280;27734;47.028;28.820;2023-04-29T03:23:34;100667.27;;;5.04;58.65
42067;BME280;27734;47.028;28.820;2023-04-29T03:26:03;100670.79;;;5.05;58.14
42067;BME280;27734;47.028;28.820;2023-04-29T03:28:32;100668.28;;;5.07;57.92
42067;BME280;27734;47.028;28.820;2023-04-29T03:31:00;100673.58;;;5.08;58.36
42067;BME280;27734;47.028;28.820;2023-04-29T03:33:29;100673.48;;;5.07;58.15
42067;BME280;27734;47.028;28.820;2023-04-29T03:35:58;100681.19;;;5.05;58.83
42067;BME280;27734;47.028;28.820;2023-04-29T03:38:35;100676.78;;;5.04;58.56
42067;BME280;27734;47.028;28.820;2023-04-29T03:41:05;100683.80;;;5.05;58.96
42067;BME280;27734;47.028;28.820;2023-04-29T03:43:34;100678.69;;;5.07;58.19
42067;BME280;27734;47.028;28.820;2023-04-29T03:46:03;100682.36;;;5.10;58.33
42067;BME280;27734;47.028;28.820;2023-04-29T03:48:31;100682.45;;;5.12;58.39
42067;BME280;27734;47.028;28.820;2023-04-29T03:51:00;100685.23;;;5.15;58.57
42067;BME280;27734;47.028;28.820;2023-04-29T03:53:28;100682.91;;;5.19;58.44
42067;BME280;27734;47.028;28.820;2023-04-29T03:55:57;100678.78;;;5.23;58.39
42067;BME280;27734;47.028;28.820;2023-04-29T03:58:26;100692.95;;;5.28;58.33
42067;BME280;27734;47.028;28.820;2023-04-29T04:00:55;100688.77;;;5.30;58.36
42067;BME280;27734;47.028;28.820;2023-04-29T04:03:24;100694.15;;;5.33;58.98
42067;BME280;27734;47.028;28.820;2023-04-29T04:05:56;100676.12;;;5.36;58.12
42067;BME280;27734;47.028;28.820;2023-04-29T04:08:24;100680.58;;;5.39;58.74
42067;BME280;27734;47.028;28.820;2023-04-29T04:10:57;100684.47;;;5.46;58.80
42067;BME280;27734;47.028;28.820;2023-04-29T04:13:52;100681.41;;;5.53;58.86
42067;BME280;27734;47.028;28.820;2023-04-29T04:16:21;100682.69;;;5.60;58.70
42067;BME280;27734;47.028;28.820;2023-04-29T04:18:49;100683.05;;;5.66;58.83
42067;BME280;27734;47.028;28.820;2023-04-29T04:21:18;100679.88;;;5.71;59.03
42067;BME280;27734;47.028;28.820;2023-04-29T04:23:53;100682.84;;;5.78;58.99
42067;BME280;27734;47.028;28.820;2023-04-29T04:26:23;100676.17;;;5.83;58.67
42067;BME280;27734;47.028;28.820;2023-04-29T04:28:54;100680.77;;;5.87;58.87
42067;BME280;27734;47.028;28.820;2023-04-29T04:32:01;100673.39;;;5.94;58.31
42067;BME280;27734;47.028;28.820;2023-04-29T04:34:31;100673.95;;;6.04;58.23
42067;BME280;27734;47.028;28.820;2023-04-29T04:37:00;100677.08;;;6.13;58.00
42067;BME280;27734;47.028;28.820;2023-04-29T04:39:29;100676.63;;;6.20;58.14
42067;BME280;27734;47.028;28.820;2023-04-29T04:41:58;100674.45;;;6.28;57.92
42067;BME280;27734;47.028;28.820;2023-04-29T04:44:27;100674.03;;;6.37;57.70
42067;BME280;27734;47.028;28.820;2023-04-29T04:47:05;100675.43;;;6.46;57.82
42067;BME280;27734;47.028;28.820;2023-04-29T04:49:43;100662.18;;;6.58;57.53
42067;BME280;27734;47.028;28.820;2023-04-29T04:52:13;100661.63;;;6.64;57.47
42067;BME280;27734;47.028;28.820;2023-04-29T04:54:45;100664.56;;;6.70;57.20
42067;BME280;27734;47.028;28.820;2023-04-29T04:57:17;100662.29;;;6.76;56.83
42067;BME280;27734;47.028;28.820;2023-04-29T04:59:46;100667.08;;;6.85;57.23
42067;BME280;27734;47.028;28.820;2023-04-29T05:02:15;100663.08;;;6.92;57.28
42067;BME280;27734;47.028;28.820;2023-04-29T05:04:44;100662.67;;;7.00;56.99
42067;BME280;27734;47.028;28.820;2023-04-29T05:07:13;100668.38;;;7.10;56.45
42067;BME280;27734;47.028;28.820;2023-04-29T05:09:57;100674.00;;;7.17;56.45
42067;BME280;27734;47.028;28.820;2023-04-29T05:12:27;100668.38;;;7.26;56.36
42067;BME280;27734;47.028;28.820;2023-04-29T05:14:57;100670.55;;;7.35;56.38
42067;BME280;27734;47.028;28.820;2023-04-29T05:17:27;100672.05;;;7.48;56.25
42067;BME280;27734;47.028;28.820;2023-04-29T05:19:56;100671.87;;;7.61;56.24
42067;BME280;27734;47.028;28.820;2023-04-29T05:22:25;100678.83;;;7.79;54.49
42067;BME280;27734;47.028;28.820;2023-04-29T05:24:53;100676.09;;;7.94;53.93
42067;BME280;27734;47.028;28.820;2023-04-29T05:27:29;100673.38;;;8.10;53.21
42067;BME280;27734;47.028;28.820;2023-04-29T05:29:58;100669.73;;;8.24;54.18
42067;BME280;27734;47.028;28.820;2023-04-29T05:32:26;100672.02;;;8.36;52.35
42067;BME280;27734;47.028;28.820;2023-04-29T05:34:55;100680.33;;;8.45;49.88
42067;BME280;27734;47.028;28.820;2023-04-29T05:37:24;100672.25;;;8.59;51.06
42067;BME280;27734;47.028;28.820;2023-04-29T05:40:09;100670.06;;;8.68;52.78
42067;BME280;27734;47.028;28.820;2023-04-29T05:42:37;100667.80;;;8.76;51.47
42067;BME280;27734;47.028;28.820;2023-04-29T05:45:09;100669.17;;;8.87;50.53
42067;BME280;27734;47.028;28.820;2023-04-29T05:47:39;100667.84;;;8.97;50.24
42067;BME280;27734;47.028;28.820;2023-04-29T05:50:09;100659.52;;;9.06;49.08
42067;BME280;27734;47.028;28.820;2023-04-29T05:52:38;100659.08;;;9.16;50.76
42067;BME280;27734;47.028;28.820;2023-04-29T05:55:08;100660.20;;;9.21;47.58
42067;BME280;27734;47.028;28.820;2023-04-29T05:57:37;100661.63;;;9.34;50.40
42067;BME280;27734;47.028;28.820;2023-04-29T06:00:08;100663.09;;;9.48;50.06
42067;BME280;27734;47.028;28.820;2023-04-29T06:02:41;100657.63;;;9.63;49.17
42067;BME280;27734;47.028;28.820;2023-04-29T06:05:12;100661.58;;;9.75;48.15
42067;BME280;27734;47.028;28.820;2023-04-29T06:08:08;100657.73;;;9.87;48.54
42067;BME280;27734;47.028;28.820;2023-04-29T06:10:51;100661.45;;;9.93;47.09
42067;BME280;27734;47.028;28.820;2023-04-29T06:13:20;100660.86;;;10.00;47.27
42067;BME280;27734;47.028;28.820;2023-04-29T06:15:49;100652.41;;;10.07;47.95
42067;BME280;27734;47.028;28.820;2023-04-29T06:18:18;100654.49;;;10.16;47.80
42067;BME280;27734;47.028;28.820;2023-04-29T06:20:47;100654.03;;;10.26;45.77
42067;BME280;27734;47.028;28.820;2023-04-29T06:23:16;100651.98;;;10.40;46.96
42067;BME280;27734;47.028;28.820;2023-04-29T06:25:44;100651.58;;;10.52;45.57
42067;BME280;27734;47.028;28.820;2023-04-29T06:28:13;100647.51;;;10.60;43.52
42067;BME280;27734;47.028;28.820;2023-04-29T06:30:42;100635.56;;;10.68;43.77
42067;BME280;27734;47.028;28.820;2023-04-29T06:33:14;100639.35;;;10.76;45.58
42067;BME280;27734;47.028;28.820;2023-04-29T06:35:43;100631.70;;;10.83;45.33
42067;BME280;27734;47.028;28.820;2023-04-29T06:38:30;100632.84;;;10.89;46.23
42067;BME280;27734;47.028;28.820;2023-04-29T06:41:17;100630.78;;;11.05;46.27
42067;BME280;27734;47.028;28.820;2023-04-29T06:43:52;100627.67;;;11.17;45.99
42067;BME280;27734;47.028;28.820;2023-04-29T06:46:37;100623.84;;;11.32;44.25
42067;BME280;27734;47.028;28.820;2023-04-29T06:49:11;100614.62;;;11.44;42.95
42067;BME280;27734;47.028;28.820;2023-04-29T06:51:39;100618.44;;;11.54;43.00
42067;BME280;27734;47.028;28.820;2023-04-29T06:54:09;100619.84;;;11.69;42.65
42067;BME280;27734;47.028;28.820;2023-04-29T06:56:38;100621.27;;;11.87;43.10
42067;BME280;27734;47.028;28.820;2023-04-29T06:59:06;100612.14;;;12.01;41.40
42067;BME280;27734;47.028;28.820;2023-04-29T07:01:36;100618.62;;;12.13;42.62
42067;BME280;27734;47.028;28.820;2023-04-29T07:04:05;100618.05;;;12.23;39.70
42067;BME280;27734;47.028;28.820;2023-04-29T07:06:34;100622.95;;;12.39;38.18
42067;BME280;27734;47.028;28.820;2023-04-29T07:09:03;100615.38;;;12.50;40.02
42067;BME280;27734;47.028;28.820;2023-04-29T07:11:35;100611.22;;;12.58;40.03
42067;BME280;27734;47.028;28.820;2023-04-29T07:14:03;100600.16;;;12.70;38.85
42067;BME280;27734;47.028;28.820;2023-04-29T07:16:32;100598.72;;;12.82;39.27
42067;BME280;27734;47.028;28.820;2023-04-29T07:19:00;100601.82;;;12.99;39.17
42067;BME280;27734;47.028;28.820;2023-04-29T07:21:29;100598.52;;;13.06;36.04
42067;BME280;27734;47.028;28.820;2023-04-29T07:23:58;100601.58;;;13.23;36.58
42067;BME280;27734;47.028;28.820;2023-04-29T07:26:30;100579.69;;;13.25;37.47
42067;BME280;27734;47.028;28.820;2023-04-29T07:28:58;100598.09;;;13.24;34.39
42067;BME280;27734;47.028;28.820;2023-04-29T07:31:27;100574.30;;;13.21;37.42
42067;BME280;27734;47.028;28.820;2023-04-29T07:33:57;100596.81;;;13.41;35.65
42067;BME280;27734;47.028;28.820;2023-04-29T07:36:25;100606.03;;;13.57;35.58
42067;BME280;27734;47.028;28.820;2023-04-29T07:38:55;100601.37;;;13.47;33.95
42067;BME280;27734;47.028;28.820;2023-04-29T07:41:26;100605.91;;;13.53;33.08
42067;BME280;27734;47.028;28.820;2023-04-29T07:43:55;100606.99;;;13.61;35.42
42067;BME280;27734;47.028;28.820;2023-04-29T07:46:24;100599.16;;;13.64;34.26
42067;BME280;27734;47.028;28.820;2023-04-29T07:48:53;100605.23;;;13.61;33.09
42067;BME280;27734;47.028;28.820;2023-04-29T07:51:22;100605.84;;;13.50;35.02
42067;BME280;27734;47.028;28.820;2023-04-29T07:53:50;100598.58;;;13.41;32.88
42067;BME280;27734;47.028;28.820;2023-04-29T07:56:19;100611.99;;;13.50;33.31
42067;BME280;27734;47.028;28.820;2023-04-29T07:58:48;100606.15;;;13.62;32.78
42067;BME280;27734;47.028;28.820;2023-04-29T08:01:17;100593.34;;;13.79;33.19
42067;BME280;27734;47.028;28.820;2023-04-29T08:03:46;100592.83;;;13.94;33.56
42067;BME280;27734;47.028;28.820;2023-04-29T08:06:16;100583.20;;;13.96;33.93
42067;BME280;27734;47.028;28.820;2023-04-29T08:08:47;100586.97;;;14.06;30.94
42067;BME280;27734;47.028;28.820;2023-04-29T08:11:19;100587.31;;;14.21;32.13
42067;BME280;27734;47.028;28.820;2023-04-29T08:13:48;100590.73;;;14.17;32.21
42067;BME280;27734;47.028;28.820;2023-04-29T08:16:18;100588.02;;;14.14;32.70
42067;BME280;27734;47.028;28.820;2023-04-29T08:18:46;100587.98;;;14.12;32.94
42067;BME280;27734;47.028;28.820;2023-04-29T08:21:15;100587.00;;;14.07;33.56
42067;BME280;27734;47.028;28.820;2023-04-29T08:23:44;100581.80;;;14.10;32.35
42067;BME280;27734;47.028;28.820;2023-04-29T08:26:12;100581.76;;;14.09;32.75
42067;BME280;27734;47.028;28.820;2023-04-29T08:28:41;100569.34;;;14.05;32.36
42067;BME280;27734;47.028;28.820;2023-04-29T08:31:16;100575.42;;;14.02;31.08
42067;BME280;27734;47.028;28.820;2023-04-29T08:33:45;100564.73;;;13.96;31.12
42067;BME280;27734;47.028;28.820;2023-04-29T08:36:13;100561.11;;;13.91;31.85
42067;BME280;27734;47.028;28.820;2023-04-29T08:38:42;100557.48;;;13.86;32.54
42067;BME280;27734;47.028;28.820;2023-04-29T08:41:11;100544.44;;;13.92;32.62
42067;BME280;27734;47.028;28.820;2023-04-29T08:43:42;100556.89;;;13.99;31.55
42067;BME280;27734;47.028;28.820;2023-04-29T08:46:10;100571.06;;;14.02;31.63
42067;BME280;27734;47.028;28.820;2023-04-29T08:48:40;100559.42;;;13.94;31.70
42067;BME280;27734;47.028;28.820;2023-04-29T08:51:11;100556.64;;;13.88;31.54
42067;BME280;27734;47.028;28.820;2023-04-29T08:53:40;100550.55;;;13.91;32.10
42067;BME280;27734;47.028;28.820;2023-04-29T08:56:14;100548.02;;;13.95;32.00
42067;BME280;27734;47.028;28.820;2023-04-29T08:58:44;100564.80;;;13.99;31.61
42067;BME280;27734;47.028;28.820;2023-04-29T09:01:13;100533.98;;;13.96;32.21
42067;BME280;27734;47.028;28.820;2023-04-29T09:03:48;100523.64;;;14.06;32.44
42067;BME280;27734;47.028;28.820;2023-04-29T09:06:19;100542.22;;;14.10;31.60
42067;BME280;27734;47.028;28.820;2023-04-29T09:08:48;100547.39;;;14.06;31.80
42067;BME280;27734;47.028;28.820;2023-04-29T09:11:17;100532.02;;;13.88;30.30
42067;BME280;27734;47.028;28.820;2023-04-29T09:13:46;100525.13;;;13.94;31.04
42067;BME280;27734;47.028;28.820;2023-04-29T09:16:15;100514.64;;;13.97;31.69
42067;BME280;27734;47.028;28.820;2023-04-29T09:18:45;100514.84;;;14.07;31.34
42067;BME280;27734;47.028;28.820;2023-04-29T09:21:16;100514.10;;;14.12;31.92
42067;BME280;27734;47.028;28.820;2023-04-29T09:23:45;100502.80;;;14.18;30.21
42067;BME280;27734;47.028;28.820;2023-04-29T09:26:15;100503.64;;;14.17;31.23
42067;BME280;27734;47.028;28.820;2023-04-29T09:28:43;100496.77;;;14.25;32.17
42067;BME280;27734;47.028;28.820;2023-04-29T09:31:14;100495.98;;;14.29;31.28
42067;BME280;27734;47.028;28.820;2023-04-29T09:33:53;100497.61;;;14.24;29.32
42067;BME280;27734;47.028;28.820;2023-04-29T09:36:36;100494.98;;;14.24;30.82
42067;BME280;27734;47.028;28.820;2023-04-29T09:39:06;100489.80;;;14.29;30.41
42067;BME280;27734;47.028;28.820;2023-04-29T09:41:56;100488.16;;;14.34;31.17
42067;BME280;27734;47.028;28.820;2023-04-29T09:44:27;100469.72;;;14.35;31.65
42067;BME280;27734;47.028;28.820;2023-04-29T09:46:58;100483.57;;;14.25;31.17
42067;BME280;27734;47.028;28.820;2023-04-29T09:49:28;100475.69;;;14.27;29.41
42067;BME280;27734;47.028;28.820;2023-04-29T09:51:58;100479.30;;;14.32;29.66
42067;BME280;27734;47.028;28.820;2023-04-29T09:54:29;100475.81;;;14.33;30.89
42067;BME280;27734;47.028;28.820;2023-04-29T09:56:59;100477.60;;;14.34;30.69
42067;BME280;27734;47.028;28.820;2023-04-29T09:59:33;100476.84;;;14.41;30.61
42067;BME280;27734;47.028;28.820;2023-04-29T10:02:09;100463.67;;;14.43;30.87
42067;BME280;27734;47.028;28.820;2023-04-29T10:04:44;100449.74;;;14.50;30.96
42067;BME280;27734;47.028;28.820;2023-04-29T10:07:15;100479.61;;;14.47;29.25
42067;BME280;27734;47.028;28.820;2023-04-29T10:09:45;100456.66;;;14.43;30.59
42067;BME280;27734;47.028;28.820;2023-04-29T10:12:20;100462.12;;;14.52;30.21
42067;BME280;27734;47.028;28.820;2023-04-29T10:14:56;100466.61;;;14.58;28.42
42067;BME280;27734;47.028;28.820;2023-04-29T10:17:41;100464.00;;;14.60;29.72
42067;BME280;27734;47.028;28.820;2023-04-29T10:20:13;100461.48;;;14.64;30.58
42067;BME280;27734;47.028;28.820;2023-04-29T10:22:46;100454.50;;;14.66;29.83
42067;BME280;27734;47.028;28.820;2023-04-29T10:25:16;100459.00;;;14.73;29.95
42067;BME280;27734;47.028;28.820;2023-04-29T10:27:46;100453.61;;;14.67;29.96
42067;BME280;27734;47.028;28.820;2023-04-29T10:30:16;100442.36;;;14.78;29.69
42067;BME280;27734;47.028;28.820;2023-04-29T10:32:46;100446.05;;;14.87;30.34
42067;BME280;27734;47.028;28.820;2023-04-29T10:35:16;100440.73;;;14.86;30.08
42067;BME280;27734;47.028;28.820;2023-04-29T10:37:47;100461.92;;;14.89;29.13
42067;BME280;27734;47.028;28.820;2023-04-29T10:40:21;100444.41;;;14.96;30.88
42067;BME280;27734;47.028;28.820;2023-04-29T10:42:51;100441.84;;;15.00;29.54
42067;BME280;27734;47.028;28.820;2023-04-29T10:45:21;100447.11;;;14.99;29.67
42067;BME280;27734;47.028;28.820;2023-04-29T10:48:10;100448.05;;;15.01;29.58
42067;BME280;27734;47.028;28.820;2023-04-29T10:51:01;100431.25;;;14.99;30.89
42067;BME280;27734;47.028;28.820;2023-04-29T10:53:30;100426.94;;;15.02;31.00
42067;BME280;27734;47.028;28.820;2023-04-29T10:56:09;100423.41;;;15.03;31.50
42067;BME280;27734;47.028;28.820;2023-04-29T10:58:42;100430.53;;;15.07;29.96
42067;BME280;27734;47.028;28.820;2023-04-29T11:01:13;100433.22;;;15.10;29.54
42067;BME280;27734;47.028;28.820;2023-04-29T11:03:50;100432.39;;;15.13;29.55
42067;BME280;27734;47.028;28.820;2023-04-29T11:06:24;100409.53;;;15.17;30.86
42067;BME280;27734;47.028;28.820;2023-04-29T11:09:08;100407.81;;;15.20;30.56
42067;BME280;27734;47.028;28.820;2023-04-29T11:11:42;100431.67;;;15.25;29.96
42067;BME280;27734;47.028;28.820;2023-04-29T11:14:11;100420.37;;;15.34;30.43
42067;BME280;27734;47.028;28.820;2023-04-29T11:16:47;100408.86;;;15.32;30.85
42067;BME280;27734;47.028;28.820;2023-04-29T11:19:16;100396.55;;;15.32;29.96
42067;BME280;27734;47.028;28.820;2023-04-29T11:21:46;100398.38;;;15.38;29.67
42067;BME280;27734;47.028;28.820;2023-04-29T11:24:14;100394.85;;;15.37;30.05
42067;BME280;27734;47.028;28.820;2023-04-29T11:26:44;100389.66;;;15.43;29.90
42067;BME280;27734;47.028;28.820;2023-04-29T11:29:13;100385.35;;;15.52;29.11
42067;BME280;27734;47.028;28.820;2023-04-29T11:31:42;100397.80;;;15.59;30.09
42067;BME280;27734;47.028;28.820;2023-04-29T11:34:10;100383.68;;;15.57;28.62
42067;BME280;27734;47.028;28.820;2023-04-29T11:36:39;100386.34;;;15.58;29.81
42067;BME280;27734;47.028;28.820;2023-04-29T11:39:08;100395.98;;;15.56;28.61
42067;BME280;27734;47.028;28.820;2023-04-29T11:41:37;100396.98;;;15.63;28.66
42067;BME280;27734;47.028;28.820;2023-04-29T11:44:06;100394.34;;;15.63;29.11
42067;BME280;27734;47.028;28.820;2023-04-29T11:46:36;100380.27;;;15.67;29.97
42067;BME280;27734;47.028;28.820;2023-04-29T11:49:05;100403.20;;;15.67;28.57
42067;BME280;27734;47.028;28.820;2023-04-29T11:51:33;100394.38;;;15.66;28.50
42067;BME280;27734;47.028;28.820;2023-04-29T11:54:02;100397.16;;;15.75;29.27
42067;BME280;27734;47.028;28.820;2023-04-29T11:56:31;100399.04;;;15.84;28.56
42067;BME280;27734;47.028;28.820;2023-04-29T11:58:59;100391.95;;;15.83;29.74
42067;BME280;27734;47.028;28.820;2023-04-29T12:01:28;100383.13;;;15.81;29.74
42067;BME280;27734;47.028;28.820;2023-04-29T12:03:58;100384.95;;;15.85;29.46
42067;BME280;27734;47.028;28.820;2023-04-29T12:06:30;100377.05;;;15.88;28.18
42067;BME280;27734;47.028;28.820;2023-04-29T12:08:59;100394.58;;;15.81;29.03
42067;BME280;27734;47.028;28.820;2023-04-29T12:11:28;100371.66;;;15.80;29.50
42067;BME280;27734;47.028;28.820;2023-04-29T12:13:57;100381.36;;;15.81;28.69
42067;BME280;27734;47.028;28.820;2023-04-29T12:16:29;100368.20;;;15.88;29.63
42067;BME280;27734;47.028;28.820;2023-04-29T12:18:59;100385.05;;;15.93;28.57
42067;BME280;27734;47.028;28.820;2023-04-29T12:21:27;100365.61;;;15.92;29.09
42067;BME280;27734;47.028;28.820;2023-04-29T12:24:00;100355.90;;;15.90;28.42
42067;BME280;27734;47.028;28.820;2023-04-29T12:26:30;100354.95;;;15.86;28.00
42067;BME280;27734;47.028;28.820;2023-04-29T12:28:59;100352.31;;;15.86;28.19
42067;BME280;27734;47.028;28.820;2023-04-29T12:31:37;100354.19;;;15.95;28.51
42067;BME280;27734;47.028;28.820;2023-04-29T12:34:07;100356.05;;;16.02;28.92
42067;BME280;27734;47.028;28.820;2023-04-29T12:36:36;100350.78;;;16.05;26.60
42067;BME280;27734;47.028;28.820;2023-04-29T12:39:06;100351.66;;;16.06;27.64
42067;BME280;27734;47.028;28.820;2023-04-29T12:41:38;100358.67;;;16.01;28.10
42067;BME280;27734;47.028;28.820;2023-04-29T12:44:07;100340.16;;;16.02;27.85
42067;BME280;27734;47.028;28.820;2023-04-29T12:46:38;100337.53;;;16.04;27.99
42067;BME280;27734;47.028;28.820;2023-04-29T12:49:07;100335.83;;;16.10;28.64
42067;BME280;27734;47.028;28.820;2023-04-29T12:51:36;100343.79;;;16.12;27.68
42067;BME280;27734;47.028;28.820;2023-04-29T12:54:05;100343.80;;;16.13;27.71
42067;BME280;27734;47.028;28.820;2023-04-29T12:56:34;100335.87;;;16.15;28.17
42067;BME280;27734;47.028;28.820;2023-04-29T12:59:06;100326.17;;;16.15;28.51
42067;BME280;27734;47.028;28.820;2023-04-29T13:01:35;100324.43;;;16.16;28.61
42067;BME280;27734;47.028;28.820;2023-04-29T13:04:04;100319.16;;;16.17;28.22
42067;BME280;27734;47.028;28.820;2023-04-29T13:06:35;100312.10;;;16.20;27.43